Time;durP1;ratioP1;P1;durP2;ratioP2;P2;SDS_P1;SDS_P2;PMS_P1;PMS_P2;Temp;Humidity;BMP_temperature;BMP_pressure;BME280_temperature;BME280_humidity;BME280_pressure;Samples;Min_cycle;Max_cycle;Signal;HPM_P1;HPM_P2
2022/06/01 00:01:20;;;;;;;1.73;1.20;;;12.80;99.90;;;;;;5065239;28;20028;-77
2022/06/01 00:03:46;;;;;;;0.98;0.95;;;12.80;99.90;;;;;;5060672;28;20086;-78
2022/06/01 00:06:12;;;;;;;1.05;0.80;;;12.80;99.90;;;;;;5063362;28;20028;-77
2022/06/01 00:08:39;;;;;;;1.20;0.90;;;12.80;99.90;;;;;;5077754;28;20507;-79
2022/06/01 00:11:06;;;;;;;1.65;0.88;;;12.80;99.90;;;;;;5059833;28;20031;-79
2022/06/01 00:13:32;;;;;;;0.90;0.90;;;12.80;99.90;;;;;;5078242;28;20020;-78
2022/06/01 00:15:57;;;;;;;1.10;1.02;;;12.90;99.90;;;;;;5072300;28;20063;-78
2022/06/01 00:18:24;;;;;;;1.40;1.00;;;12.90;99.90;;;;;;5056843;28;20051;-79
2022/06/01 00:20:51;;;;;;;0.95;0.95;;;12.90;99.90;;;;;;5058185;28;20029;-78
2022/06/01 00:23:18;;;;;;;1.27;0.80;;;12.90;99.90;;;;;;5058319;28;20078;-79
2022/06/01 00:25:43;;;;;;;0.70;0.70;;;12.90;99.90;;;;;;5061058;28;20071;-75
2022/06/01 00:28:09;;;;;;;1.00;0.80;;;12.90;99.90;;;;;;5059072;28;20033;-77
2022/06/01 00:30:36;;;;;;;1.05;0.95;;;13.10;99.90;;;;;;5044725;28;20045;-80
2022/06/01 00:33:02;;;;;;;0.60;0.60;;;13.10;99.90;;;;;;5069776;28;20025;-79
2022/06/01 00:35:29;;;;;;;0.43;0.43;;;13.10;99.90;;;;;;5041973;28;20028;-78
2022/06/01 00:37:54;;;;;;;1.23;0.80;;;13.20;99.90;;;;;;5059234;28;20037;-78
2022/06/01 00:40:21;;;;;;;1.20;0.70;;;13.20;99.90;;;;;;5056747;28;20021;-78
2022/06/01 00:42:50;;;;;;;0.68;0.68;;;13.30;99.90;;;;;;5038348;28;20074;-79
2022/06/01 00:45:20;;;;;;;1.13;0.50;;;13.30;99.90;;;;;;5061066;28;20061;-79
2022/06/01 00:47:46;;;;;;;0.60;0.60;;;13.30;99.90;;;;;;5046756;28;20029;-78
2022/06/01 00:50:14;;;;;;;0.93;0.70;;;13.30;99.90;;;;;;5063452;28;20131;-78
2022/06/01 00:52:46;;;;;;;0.50;0.50;;;13.30;99.90;;;;;;5037979;28;20037;-79
2022/06/01 00:55:18;;;;;;;0.60;0.60;;;13.40;99.90;;;;;;5056643;28;20029;-78
2022/06/01 00:57:47;;;;;;;2.60;0.75;;;13.40;99.90;;;;;;5060973;28;20470;-78
2022/06/01 01:00:21;;;;;;;0.60;0.60;;;13.40;99.90;;;;;;5059962;28;20385;-80
2022/06/01 01:02:50;;;;;;;0.75;0.70;;;13.40;99.90;;;;;;5047345;28;20033;-80
2022/06/01 01:05:17;;;;;;;0.60;0.60;;;13.40;99.90;;;;;;5076420;28;20025;-80
2022/06/01 01:07:44;;;;;;;0.50;0.50;;;13.50;99.90;;;;;;5065830;28;20051;-77
2022/06/01 01:10:13;;;;;;;0.65;0.65;;;13.50;99.90;;;;;;5063235;28;20021;-79
2022/06/01 01:12:59;;;;;;;0.60;0.52;;;13.50;99.90;;;;;;5045729;28;20025;-79
2022/06/01 01:15:34;;;;;;;0.45;0.45;;;13.50;99.90;;;;;;5063823;28;20018;-79
2022/06/01 01:18:06;;;;;;;0.80;0.80;;;13.50;99.90;;;;;;5044769;28;20036;-79
2022/06/01 01:20:34;;;;;;;0.73;0.68;;;13.50;99.90;;;;;;5046237;28;20045;-79
2022/06/01 01:23:46;;;;;;;0.60;0.60;;;13.50;99.90;;;;;;5053348;28;20065;-79
2022/06/01 01:26:14;;;;;;;0.82;0.80;;;13.40;99.90;;;;;;5035985;28;20029;-78
2022/06/01 01:28:41;;;;;;;0.88;0.88;;;13.40;99.90;;;;;;5044837;28;20048;-76
2022/06/01 01:31:18;;;;;;;0.88;0.80;;;13.40;99.90;;;;;;5066739;28;20016;-80
2022/06/01 01:33:46;;;;;;;0.80;0.80;;;13.30;99.90;;;;;;5072822;28;20047;-79
2022/06/01 01:36:13;;;;;;;1.15;0.85;;;13.30;99.90;;;;;;5081282;28;20117;-79
2022/06/01 01:38:56;;;;;;;2.20;0.95;;;13.30;99.90;;;;;;5080499;28;20029;-80
2022/06/01 01:41:27;;;;;;;0.57;0.57;;;13.30;99.90;;;;;;5062196;28;20008;-79
2022/06/01 01:44:11;;;;;;;0.77;0.75;;;13.30;99.90;;;;;;5045271;28;20040;-79
2022/06/01 01:46:37;;;;;;;0.77;0.77;;;13.20;99.90;;;;;;5054889;28;20021;-78
2022/06/01 01:49:03;;;;;;;0.50;0.50;;;13.20;99.90;;;;;;5054746;28;20021;-79
2022/06/01 01:51:31;;;;;;;1.02;0.82;;;13.10;99.90;;;;;;5054441;28;20035;-78
2022/06/01 01:54:01;;;;;;;0.85;0.80;;;13.10;99.90;;;;;;5036604;28;20371;-79
2022/06/01 01:56:52;;;;;;;1.50;0.80;;;13.10;99.90;;;;;;5055651;28;20048;-75
2022/06/01 01:59:42;;;;;;;0.75;0.63;;;13.00;99.90;;;;;;5039543;28;20087;-79
2022/06/01 02:02:36;;;;;;;0.50;0.50;;;13.00;99.90;;;;;;5049251;28;20127;-79
2022/06/01 02:08:31;;;;;;;0.65;0.65;;;12.90;99.90;;;;;;5035512;28;20056;-79
2022/06/01 02:14:06;;;;;;;0.93;0.85;;;12.80;99.90;;;;;;5034075;28;20036;-79
2022/06/01 02:16:36;;;;;;;1.90;0.77;;;12.80;99.90;;;;;;5034250;28;20025;-77
2022/06/01 02:19:06;;;;;;;2.97;0.85;;;12.90;99.90;;;;;;5048350;28;20048;-77
2022/06/01 02:21:32;;;;;;;1.88;0.98;;;12.90;99.90;;;;;;5054521;28;20021;-79
2022/06/01 02:24:00;;;;;;;0.70;0.70;;;12.90;99.90;;;;;;5053971;28;20069;-78
2022/06/01 02:26:27;;;;;;;1.98;0.85;;;12.80;99.90;;;;;;5054107;28;20070;-77
2022/06/01 02:29:02;;;;;;;0.90;0.85;;;12.70;99.90;;;;;;5054025;28;20068;-78
2022/06/01 02:31:29;;;;;;;0.75;0.75;;;12.70;99.90;;;;;;5062060;28;20440;-78
2022/06/01 02:33:56;;;;;;;0.95;0.68;;;12.70;99.90;;;;;;5068672;28;20024;-79
2022/06/01 02:36:23;;;;;;;0.90;0.90;;;12.70;99.90;;;;;;5058487;28;20488;-78
2022/06/01 02:38:51;;;;;;;0.75;0.70;;;12.70;99.90;;;;;;5054049;28;20116;-77
2022/06/01 02:44:01;;;;;;;0.55;0.55;;;12.60;99.90;;;;;;5057204;28;20109;-77
2022/06/01 02:46:27;;;;;;;0.85;0.60;;;12.60;99.90;;;;;;5054453;28;20029;-78
2022/06/01 02:48:55;;;;;;;0.52;0.52;;;12.60;99.90;;;;;;5054612;28;20025;-77
2022/06/01 02:51:22;;;;;;;0.60;0.60;;;12.50;99.90;;;;;;5037669;28;20087;-79
2022/06/01 02:53:48;;;;;;;0.95;0.95;;;12.50;99.90;;;;;;5054066;28;20021;-78
2022/06/01 02:56:14;;;;;;;1.05;0.95;;;12.50;99.90;;;;;;5055220;28;20032;-77
2022/06/01 02:58:40;;;;;;;2.47;0.90;;;12.40;99.90;;;;;;5054347;28;20037;-78
2022/06/01 03:01:06;;;;;;;1.02;1.02;;;12.40;99.90;;;;;;5059794;28;20032;-77
2022/06/01 03:03:33;;;;;;;1.25;1.15;;;12.40;99.90;;;;;;5047535;28;20032;-78
2022/06/01 03:05:59;;;;;;;1.02;1.02;;;12.40;99.90;;;;;;5074444;28;20120;-79
2022/06/01 03:08:25;;;;;;;0.70;0.70;;;12.30;99.90;;;;;;5074742;28;20028;-78
2022/06/01 03:10:52;;;;;;;1.25;0.70;;;12.30;99.90;;;;;;5063413;28;20035;-78
2022/06/01 03:13:19;;;;;;;0.70;0.70;;;12.30;99.90;;;;;;5035923;28;20029;-78
2022/06/01 03:15:45;;;;;;;0.77;0.77;;;12.30;99.90;;;;;;5037030;28;20116;-78
2022/06/01 03:18:10;;;;;;;0.90;0.90;;;12.40;99.90;;;;;;5055460;28;20105;-77
2022/06/01 03:20:38;;;;;;;1.17;0.65;;;12.40;99.90;;;;;;5037870;28;20079;-77
2022/06/01 03:23:04;;;;;;;0.75;0.65;;;12.30;99.90;;;;;;5044755;28;20017;-77
2022/06/01 03:25:30;;;;;;;0.68;0.68;;;12.30;99.90;;;;;;5063433;28;20031;-79
2022/06/01 03:27:57;;;;;;;0.93;0.93;;;12.30;99.90;;;;;;5036958;28;20029;-78
2022/06/01 03:30:24;;;;;;;1.58;0.70;;;12.30;99.90;;;;;;5055119;28;20021;-79
2022/06/01 03:32:50;;;;;;;1.25;0.70;;;12.30;99.90;;;;;;5063360;28;20036;-79
2022/06/01 03:35:20;;;;;;;0.68;0.68;;;12.30;99.90;;;;;;5039461;28;20092;-77
2022/06/01 03:37:46;;;;;;;0.60;0.60;;;12.30;99.90;;;;;;5055497;28;20025;-78
2022/06/01 03:40:13;;;;;;;0.70;0.70;;;12.40;99.90;;;;;;5053828;28;20200;-77
2022/06/01 03:42:39;;;;;;;0.80;0.80;;;12.40;99.90;;;;;;5054112;28;20449;-79
2022/06/01 03:47:50;;;;;;;0.70;0.70;;;12.50;99.90;;;;;;5054299;28;20055;-79
2022/06/01 03:50:17;;;;;;;0.90;0.90;;;12.50;99.90;;;;;;5054203;28;20082;-78
2022/06/01 03:52:45;;;;;;;0.70;0.70;;;12.60;99.90;;;;;;5054544;28;20025;-78
2022/06/01 03:55:12;;;;;;;1.13;1.13;;;12.60;99.90;;;;;;5055007;28;20025;-78
2022/06/01 03:57:38;;;;;;;0.82;0.80;;;12.70;99.90;;;;;;5056241;28;20497;-79
2022/06/01 04:00:10;;;;;;;0.70;0.70;;;12.70;99.90;;;;;;5058324;28;20096;-76
2022/06/01 04:02:37;;;;;;;;;;;12.70;99.90;;;;;;5075091;28;20029;-77
2022/06/01 04:05:03;;;;;;;0.73;0.73;;;12.80;99.90;;;;;;5062386;28;19950;-78
2022/06/01 04:07:29;;;;;;;1.48;0.82;;;12.80;99.90;;;;;;5071711;28;20021;-78
2022/06/01 04:09:54;;;;;;;0.82;0.82;;;12.90;99.90;;;;;;5064610;28;20094;-79
2022/06/01 04:12:21;;;;;;;1.40;0.68;;;12.90;99.90;;;;;;5058791;28;20025;-78
2022/06/01 04:14:46;;;;;;;1.20;0.80;;;13.00;99.90;;;;;;5057427;28;20517;-78
2022/06/01 04:17:12;;;;;;;1.38;0.63;;;13.10;99.90;;;;;;5039542;28;20025;-79
2022/06/01 04:19:37;;;;;;;0.70;0.70;;;13.10;99.90;;;;;;5057377;28;20096;-77
2022/06/01 04:22:03;;;;;;;0.70;0.70;;;13.20;99.90;;;;;;5038325;28;20052;-78
2022/06/01 04:24:32;;;;;;;0.63;0.63;;;13.30;99.90;;;;;;5040190;28;20029;-78
2022/06/01 04:26:58;;;;;;;0.77;0.77;;;13.40;99.90;;;;;;5060157;28;20081;-79
2022/06/01 04:29:24;;;;;;;0.82;0.82;;;13.60;99.90;;;;;;5057219;28;20025;-78
2022/06/01 04:31:54;;;;;;;0.85;0.85;;;13.60;99.90;;;;;;5058066;28;20021;-77
2022/06/01 04:34:19;;;;;;;1.10;0.90;;;13.70;99.90;;;;;;5073613;28;20035;-77
2022/06/01 04:36:45;;;;;;;1.00;1.00;;;13.70;99.90;;;;;;5076399;28;20028;-78
2022/06/01 04:39:11;;;;;;;1.05;1.00;;;13.70;99.90;;;;;;5057911;28;20032;-79
2022/06/01 04:41:37;;;;;;;0.88;0.88;;;13.70;99.90;;;;;;5057127;28;20093;-77
2022/06/01 04:44:02;;;;;;;0.85;0.70;;;13.70;99.90;;;;;;5060126;28;20029;-79
2022/06/01 04:46:28;;;;;;;0.90;0.77;;;13.80;99.90;;;;;;5041306;28;20478;-78
2022/06/01 04:48:54;;;;;;;1.10;1.00;;;14.00;99.90;;;;;;5057437;28;20471;-78
2022/06/01 04:51:19;;;;;;;2.05;0.90;;;14.20;99.90;;;;;;5061119;28;20029;-80
2022/06/01 04:53:45;;;;;;;2.03;1.27;;;14.30;99.90;;;;;;5041893;28;20074;-78
2022/06/01 04:56:12;;;;;;;0.98;0.98;;;14.50;99.90;;;;;;5055710;28;20021;-77
2022/06/01 04:58:38;;;;;;;1.30;1.10;;;14.80;99.60;;;;;;5055408;28;20037;-78
2022/06/01 05:01:04;;;;;;;1.33;0.80;;;15.10;98.60;;;;;;5054106;28;20038;-77
2022/06/01 05:03:30;;;;;;;1.30;1.00;;;15.30;98.00;;;;;;5058084;28;20024;-77
2022/06/01 05:05:56;;;;;;;0.75;0.75;;;15.60;97.20;;;;;;5060240;28;20021;-79
2022/06/01 05:08:22;;;;;;;1.60;0.90;;;17.10;96.90;;;;;;5057009;28;20463;-78
2022/06/01 05:10:47;;;;;;;0.70;0.70;;;20.70;90.70;;;;;;5038959;28;20041;-77
2022/06/01 05:13:18;;;;;;;0.55;0.55;;;23.60;77.20;;;;;;5058215;28;20188;-78
2022/06/01 05:15:56;;;;;;;0.40;0.40;;;26.60;65.00;;;;;;5041828;28;20437;-80
2022/06/01 05:18:23;;;;;;;1.25;0.63;;;28.90;55.80;;;;;;5059727;28;20036;-79
2022/06/01 05:20:49;;;;;;;0.90;0.70;;;29.80;51.50;;;;;;5042951;28;20021;-77
2022/06/01 05:23:17;;;;;;;0.70;0.70;;;29.80;49.10;;;;;;5047148;28;20033;-76
2022/06/01 05:25:45;;;;;;;0.60;0.60;;;30.30;47.80;;;;;;5071106;28;20100;-78
2022/06/01 05:28:11;;;;;;;0.80;0.80;;;31.10;46.60;;;;;;5060682;28;20021;-78
2022/06/01 05:30:37;;;;;;;0.75;0.75;;;31.90;44.80;;;;;;5072193;28;20090;-78
2022/06/01 05:33:03;;;;;;;0.70;0.70;;;32.70;43.80;;;;;;5080934;28;20024;-76
2022/06/01 05:35:29;;;;;;;0.80;0.80;;;33.20;42.50;;;;;;5066536;28;20043;-78
2022/06/01 05:37:55;;;;;;;0.80;0.80;;;33.40;41.90;;;;;;5063434;28;20186;-77
2022/06/01 05:40:21;;;;;;;1.10;0.75;;;33.80;41.10;;;;;;5064671;28;20028;-78
2022/06/01 05:42:46;;;;;;;1.10;1.00;;;34.30;40.30;;;;;;5064338;28;20036;-78
2022/06/01 05:45:12;;;;;;;1.10;1.00;;;34.70;39.50;;;;;;5064327;28;20092;-78
2022/06/01 05:47:38;;;;;;;4.55;1.50;;;34.50;39.40;;;;;;5073523;28;20025;-78
2022/06/01 05:50:05;;;;;;;1.27;1.20;;;34.20;38.80;;;;;;5043018;28;20033;-79
2022/06/01 05:52:31;;;;;;;2.20;1.10;;;33.90;40.10;;;;;;5059164;28;20017;-79
2022/06/01 05:54:57;;;;;;;0.98;0.98;;;33.60;39.30;;;;;;5038183;28;20020;-79
2022/06/01 05:57:23;;;;;;;1.13;1.10;;;32.10;40.30;;;;;;5058100;28;20025;-79
2022/06/01 05:59:49;;;;;;;1.48;1.20;;;31.60;41.50;;;;;;5058871;28;20276;-79
2022/06/01 06:02:15;;;;;;;1.27;1.17;;;32.30;41.70;;;;;;5041452;23;20049;-81
2022/06/01 06:04:41;;;;;;;2.67;1.00;;;33.20;40.30;;;;;;5025432;28;20426;-80
2022/06/01 06:07:06;;;;;;;2.08;1.00;;;33.30;40.40;;;;;;5029235;28;20057;-80
2022/06/01 06:09:33;;;;;;;1.23;1.23;;;33.90;40.40;;;;;;5031544;28;20088;-79
2022/06/01 06:12:03;;;;;;;1.27;1.05;;;34.00;38.70;;;;;;5032016;28;20032;-80
2022/06/01 06:14:29;;;;;;;1.60;1.10;;;34.00;39.10;;;;;;5031155;28;20026;-81
2022/06/01 06:16:55;;;;;;;1.00;0.90;;;33.60;39.00;;;;;;5048624;28;20227;-79
2022/06/01 06:19:21;;;;;;;2.00;1.35;;;33.60;39.60;;;;;;5034731;28;20030;-79
2022/06/01 06:21:47;;;;;;;1.20;1.13;;;34.10;38.90;;;;;;5052863;28;20022;-78
2022/06/01 06:24:16;;;;;;;2.60;0.98;;;34.40;38.70;;;;;;5049886;28;20025;-80
2022/06/01 06:26:43;;;;;;;1.20;1.02;;;34.60;38.10;;;;;;5052209;28;20017;-81
2022/06/01 06:29:10;;;;;;;3.70;1.10;;;34.70;37.70;;;;;;5048912;28;20026;-81
2022/06/01 06:31:38;;;;;;;1.30;1.10;;;34.50;37.90;;;;;;5016654;28;20512;-81
2022/06/01 06:34:04;;;;;;;0.90;0.90;;;34.80;38.10;;;;;;5043332;28;20465;-81
2022/06/01 06:36:30;;;;;;;1.88;1.25;;;35.50;37.50;;;;;;5041577;28;20018;-80
2022/06/01 06:38:56;;;;;;;1.83;1.10;;;35.80;36.80;;;;;;5024831;28;20265;-81
2022/06/01 06:41:22;;;;;;;1.17;1.00;;;35.80;37.20;;;;;;5040478;28;20040;-81
2022/06/01 06:43:48;;;;;;;0.90;0.90;;;35.50;36.30;;;;;;5041128;28;20029;-82
2022/06/01 06:46:17;;;;;;;1.35;1.23;;;35.50;37.00;;;;;;5043959;28;20022;-81
2022/06/01 06:48:45;;;;;;;1.10;1.08;;;35.80;36.10;;;;;;5041608;28;20099;-83
2022/06/01 06:51:25;;;;;;;2.78;1.20;;;35.70;36.30;;;;;;5043118;28;20040;-83
2022/06/01 06:53:50;;;;;;;1.20;1.10;;;35.60;36.10;;;;;;5046125;28;20017;-82
2022/06/01 06:56:20;;;;;;;2.38;1.30;;;35.30;36.40;;;;;;5026204;28;20049;-81
2022/06/01 06:58:49;;;;;;;1.92;1.13;;;35.30;36.60;;;;;;5046147;28;20029;-81
2022/06/01 07:01:17;;;;;;;1.45;1.23;;;35.30;36.70;;;;;;5024757;28;20025;-81
2022/06/01 07:03:43;;;;;;;2.80;1.30;;;35.20;36.30;;;;;;5042629;28;20036;-82
2022/06/01 07:06:08;;;;;;;3.30;1.00;;;35.00;36.50;;;;;;5042033;28;20071;-82
2022/06/01 07:08:36;;;;;;;2.20;1.50;;;34.80;36.70;;;;;;5042263;28;20324;-81
2022/06/01 07:11:02;;;;;;;2.08;1.48;;;34.80;36.40;;;;;;5025098;28;20047;-80
2022/06/01 07:13:28;;;;;;;1.80;1.38;;;34.40;36.60;;;;;;5042223;28;20037;-82
2022/06/01 07:16:07;;;;;;;4.30;1.77;;;32.00;37.30;;;;;;5024769;28;20026;-81
2022/06/01 07:18:34;;;;;;;1.08;1.00;;;28.20;41.10;;;;;;5042810;28;20109;-84
2022/06/01 07:21:00;;;;;;;1.98;1.33;;;25.10;45.90;;;;;;5045955;28;20029;-82
2022/06/01 07:23:26;;;;;;;2.35;1.63;;;23.10;49.80;;;;;;5042203;28;20037;-81
2022/06/01 07:25:53;;;;;;;1.98;1.02;;;21.80;53.40;;;;;;5043314;28;20470;-81
2022/06/01 07:28:21;;;;;;;2.97;1.13;;;20.90;55.70;;;;;;5047952;28;20064;-81
2022/06/01 07:30:56;;;;;;;1.73;1.52;;;20.30;57.50;;;;;;5044080;28;20056;-80
2022/06/01 07:33:23;;;;;;;3.58;1.65;;;19.90;59.00;;;;;;5042990;28;20022;-80
2022/06/01 07:35:48;;;;;;;1.33;1.23;;;19.60;60.50;;;;;;5043340;28;20501;-81
2022/06/01 07:43:43;;;;;;;2.53;1.55;;;19.50;60.90;;;;;;5046354;28;20504;-81
2022/06/01 07:46:08;;;;;;;1.30;1.20;;;19.50;59.80;;;;;;5046243;28;20041;-81
2022/06/01 07:48:34;;;;;;;2.72;1.40;;;19.50;59.60;;;;;;5047688;28;20021;-80
2022/06/01 07:51:00;;;;;;;3.25;1.60;;;19.60;58.80;;;;;;5046299;28;20029;-81
2022/06/01 07:53:26;;;;;;;3.20;1.17;;;19.70;58.60;;;;;;5046681;28;20025;-81
2022/06/01 07:55:52;;;;;;;2.33;1.25;;;19.70;58.60;;;;;;5046748;28;20032;-81
2022/06/01 07:58:17;;;;;;;5.88;1.30;;;19.60;59.60;;;;;;5046270;28;20053;-83
2022/06/01 08:00:43;;;;;;;2.28;1.30;;;19.80;59.60;;;;;;5029262;28;20025;-81
2022/06/01 08:03:14;;;;;;;2.20;1.25;;;19.90;58.70;;;;;;5028518;28;20533;-81
2022/06/01 08:05:40;;;;;;;2.67;1.15;;;20.00;58.40;;;;;;5046019;28;20030;-81
2022/06/01 08:08:06;;;;;;;3.88;1.58;;;20.10;58.50;;;;;;5044608;28;20037;-81
2022/06/01 08:10:32;;;;;;;2.75;1.50;;;20.30;57.90;;;;;;5046551;28;20049;-82
2022/06/01 08:13:07;;;;;;;1.80;1.48;;;20.50;57.80;;;;;;5044911;28;20486;-81
2022/06/01 08:16:00;;;;;;;2.83;1.15;;;20.60;57.20;;;;;;5046473;28;20030;-81
2022/06/01 08:18:26;;;;;;;1.40;1.30;;;20.80;55.90;;;;;;5044512;28;20292;-82
2022/06/01 08:20:53;;;;;;;2.90;1.85;;;21.00;55.20;;;;;;5046694;28;20021;-82
2022/06/01 08:23:21;;;;;;;3.72;1.33;;;21.20;53.90;;;;;;5045579;28;20033;-81
2022/06/01 08:25:47;;;;;;;2.03;1.33;;;21.40;53.00;;;;;;5052963;28;20040;-79
2022/06/01 08:28:13;;;;;;;1.98;1.73;;;21.60;52.00;;;;;;5055193;28;20036;-81
2022/06/01 08:30:43;;;;;;;4.32;1.50;;;21.90;52.10;;;;;;5050896;28;20290;-81
2022/06/01 08:33:09;;;;;;;3.53;1.50;;;22.10;51.50;;;;;;5052783;28;20014;-80
2022/06/01 08:35:40;;;;;;;2.70;0.93;;;22.20;50.90;;;;;;5046430;28;20068;-80
2022/06/01 08:38:07;;;;;;;2.03;1.10;;;22.20;51.50;;;;;;5029063;28;20053;-79
2022/06/01 08:41:03;;;;;;;2.53;1.15;;;22.20;50.70;;;;;;5044920;28;20087;-82
2022/06/01 08:43:34;;;;;;;1.98;1.20;;;22.30;49.00;;;;;;5044508;28;20025;-81
2022/06/01 08:46:02;;;;;;;1.95;1.20;;;22.00;49.30;;;;;;5047417;28;20041;-79
2022/06/01 08:48:40;;;;;;;1.27;1.00;;;21.90;49.40;;;;;;5047997;28;20057;-81
2022/06/01 08:51:07;;;;;;;1.92;1.08;;;22.00;48.90;;;;;;5044060;28;20025;-81
2022/06/01 08:53:33;;;;;;;2.20;1.27;;;22.10;48.00;;;;;;5026030;28;20030;-81
2022/06/01 08:56:04;;;;;;;1.52;0.90;;;22.20;47.80;;;;;;5045771;28;20021;-81
2022/06/01 08:58:48;;;;;;;3.17;0.90;;;22.10;47.90;;;;;;5044569;28;20458;-79
2022/06/01 09:01:43;;;;;;;5.05;1.40;;;22.00;47.60;;;;;;5051194;28;20033;-78
2022/06/01 09:04:34;;;;;;;3.03;1.10;;;22.10;47.80;;;;;;5028415;28;20057;-79
2022/06/01 09:07:16;;;;;;;2.15;1.00;;;22.00;47.20;;;;;;5046025;28;20029;-80
2022/06/01 09:10:00;;;;;;;2.78;1.42;;;22.00;46.60;;;;;;5053359;28;20045;-81
2022/06/01 09:12:26;;;;;;;3.03;0.98;;;22.10;45.60;;;;;;5052396;28;20060;-80
2022/06/01 09:14:57;;;;;;;1.15;0.88;;;22.10;45.30;;;;;;5049051;28;20026;-81
2022/06/01 09:17:24;;;;;;;1.10;1.00;;;22.10;45.70;;;;;;5047079;28;20026;-81
2022/06/01 09:22:42;;;;;;;2.35;1.45;;;22.10;46.70;;;;;;5043709;28;20040;-81
2022/06/01 09:25:08;;;;;;;1.95;1.30;;;22.50;45.50;;;;;;5043990;28;20044;-81
2022/06/01 09:27:39;;;;;;;1.65;1.20;;;22.50;45.60;;;;;;5042969;28;20084;-81
2022/06/01 09:30:20;;;;;;;1.92;0.95;;;22.80;46.20;;;;;;5043672;28;20041;-81
2022/06/01 09:33:28;;;;;;;4.72;1.73;;;23.20;44.90;;;;;;5039132;28;20028;-82
2022/06/01 09:36:03;;;;;;;3.35;1.13;;;23.10;45.20;;;;;;4994519;28;20096;-81
2022/06/01 09:38:51;;;;;;;1.15;0.90;;;23.10;45.80;;;;;;5022948;28;20443;-81
2022/06/01 09:41:20;;;;;;;1.23;1.10;;;23.20;45.80;;;;;;5022527;28;20022;-81
2022/06/01 09:44:08;;;;;;;1.75;1.00;;;23.30;45.80;;;;;;5023472;28;20081;-80
2022/06/01 09:46:53;;;;;;;2.50;1.08;;;23.70;45.40;;;;;;5025482;28;20044;-81
2022/06/01 09:49:31;;;;;;;3.80;0.90;;;23.90;45.10;;;;;;5035565;28;20033;-79
2022/06/01 09:52:00;;;;;;;1.08;0.90;;;24.10;44.70;;;;;;5049852;28;20032;-79
2022/06/01 09:54:34;;;;;;;1.67;1.00;;;24.20;44.50;;;;;;5027864;28;20366;-81
2022/06/01 09:57:32;;;;;;;2.83;1.00;;;24.40;44.30;;;;;;5041520;28;20390;-81
2022/06/01 10:08:23;;;;;;;1.98;1.80;;;23.70;44.80;;;;;;5041247;28;20044;-81
2022/06/01 10:11:26;;;;;;;1.63;1.35;;;23.50;45.10;;;;;;5024142;28;20021;-80
2022/06/01 10:14:00;;;;;;;2.75;1.20;;;23.40;45.50;;;;;;5041952;28;20017;-81
2022/06/01 10:16:46;;;;;;;2.65;1.50;;;23.50;45.20;;;;;;5024191;28;20099;-80
2022/06/01 10:19:17;;;;;;;2.35;1.40;;;23.60;45.30;;;;;;5041218;28;20040;-79
2022/06/01 10:21:46;;;;;;;3.78;1.50;;;23.60;45.80;;;;;;5024659;28;20029;-80
2022/06/01 10:24:20;;;;;;;2.15;1.35;;;23.40;45.60;;;;;;5041335;28;20140;-79
2022/06/01 10:26:55;;;;;;;3.15;1.55;;;23.20;46.10;;;;;;5041627;28;20029;-82
2022/06/01 10:29:27;;;;;;;4.50;1.30;;;23.30;46.10;;;;;;5040071;28;20018;-80
2022/06/01 10:32:01;;;;;;;4.80;1.33;;;23.30;45.60;;;;;;5036324;28;20041;-80
2022/06/01 10:34:50;;;;;;;1.48;1.08;;;23.10;45.80;;;;;;5022771;28;20033;-80
2022/06/01 10:37:19;;;;;;;2.33;1.40;;;23.00;46.20;;;;;;5023440;28;20032;-79
2022/06/01 10:39:53;;;;;;;1.65;1.20;;;22.70;46.80;;;;;;5043867;28;20036;-79
2022/06/01 10:45:33;;;;;;;3.17;1.33;;;22.60;47.60;;;;;;5040347;28;20516;-80
2022/06/01 10:48:13;;;;;;;2.00;1.25;;;22.60;48.10;;;;;;5045861;28;20036;-81
2022/06/01 10:50:49;;;;;;;2.08;1.00;;;22.70;47.90;;;;;;5045889;28;20379;-80
2022/06/01 10:53:18;;;;;;;2.60;1.45;;;22.70;47.40;;;;;;5044878;28;20083;-80
2022/06/01 10:55:44;;;;;;;3.13;1.70;;;22.70;47.00;;;;;;5043485;28;20025;-81
2022/06/01 10:58:22;;;;;;;2.25;1.60;;;22.80;46.70;;;;;;5053106;28;20029;-80
2022/06/01 11:00:49;;;;;;;3.70;1.20;;;22.80;47.00;;;;;;5053243;28;20021;-81
2022/06/01 11:03:48;;;;;;;4.07;1.40;;;22.90;47.10;;;;;;5053076;28;20032;-80
2022/06/01 11:07:00;;;;;;;3.08;1.55;;;23.40;46.90;;;;;;5021587;28;20037;-81
2022/06/01 11:09:25;;;;;;;2.30;1.00;;;24.90;43.80;;;;;;4943571;29;20027;-80
2022/06/01 11:11:57;;;;;;;2.17;1.30;;;25.90;42.00;;;;;;5030454;28;20041;-80
2022/06/01 11:14:45;;;;;;;;;;;26.50;40.90;;;;;;5041171;28;20050;-80
2022/06/01 11:17:44;;;;;;;2.20;1.20;;;26.80;40.30;;;;;;5050210;28;19944;-79
2022/06/01 11:20:46;;;;;;;2.17;1.42;;;26.90;39.70;;;;;;5043558;28;20026;-80
2022/06/01 11:23:31;;;;;;;2.38;1.30;;;26.70;40.50;;;;;;5045703;28;20021;-80
2022/06/01 11:26:02;;;;;;;2.15;1.33;;;26.50;40.40;;;;;;5044434;28;20418;-79
2022/06/01 11:28:47;;;;;;;3.38;1.50;;;26.10;40.70;;;;;;5030410;28;20017;-81
2022/06/01 11:31:25;;;;;;;1.27;1.15;;;25.70;41.50;;;;;;5041898;28;20048;-80
2022/06/01 11:34:10;;;;;;;3.10;1.50;;;25.40;42.40;;;;;;5042408;28;20159;-81
2022/06/01 11:36:48;;;;;;;2.45;1.17;;;25.40;42.50;;;;;;5044433;28;20029;-81
2022/06/01 11:39:27;;;;;;;2.42;1.50;;;25.40;42.30;;;;;;5041597;28;20397;-81
2022/06/01 11:42:09;;;;;;;2.30;1.33;;;25.30;42.00;;;;;;5025328;28;20033;-81
2022/06/01 11:44:41;;;;;;;3.60;1.48;;;24.80;42.70;;;;;;5042638;28;20083;-81
2022/06/01 11:47:07;;;;;;;;;;;24.40;43.30;;;;;;5024864;28;20025;-81
2022/06/01 11:49:37;;;;;;;2.05;1.10;;;24.30;44.00;;;;;;5043115;28;19952;-80
2022/06/01 11:52:43;;;;;;;2.60;1.15;;;24.60;44.00;;;;;;5042099;28;20022;-81
2022/06/01 11:55:21;;;;;;;1.35;1.20;;;25.00;42.70;;;;;;5033740;28;20032;-81
2022/06/01 11:58:18;;;;;;;2.15;1.20;;;24.90;43.00;;;;;;5043176;28;20025;-81
2022/06/01 12:00:44;;;;;;;1.10;1.00;;;25.00;43.00;;;;;;5030557;28;20041;-82
2022/06/01 12:03:15;;;;;;;1.30;1.27;;;24.80;42.90;;;;;;5038813;28;20021;-82
2022/06/01 12:06:01;;;;;;;7.18;2.13;;;24.50;42.90;;;;;;5040122;28;20033;-82
2022/06/01 12:08:49;;;;;;;3.08;1.20;;;24.60;41.90;;;;;;5038908;28;20087;-82
2022/06/01 12:11:38;;;;;;;1.45;1.13;;;24.90;41.70;;;;;;5039259;28;20026;-82
2022/06/01 12:14:25;;;;;;;2.20;1.40;;;25.30;41.60;;;;;;5040062;28;20068;-81
2022/06/01 12:17:17;;;;;;;1.52;1.20;;;25.60;40.80;;;;;;5021107;28;20030;-80
2022/06/01 12:19:45;;;;;;;1.30;1.20;;;26.20;40.30;;;;;;5039883;28;20033;-81
2022/06/01 12:28:56;;;;;;;4.55;0.98;;;26.20;39.40;;;;;;5043614;28;20048;-80
2022/06/01 12:31:52;;;;;;;4.15;1.27;;;26.00;40.10;;;;;;5040977;28;20037;-81
2022/06/01 12:34:32;;;;;;;2.45;1.02;;;26.00;39.90;;;;;;5011792;28;20038;-80
2022/06/01 12:37:38;;;;;;;1.90;1.42;;;26.00;40.00;;;;;;5041171;28;20086;-81
2022/06/01 12:40:15;;;;;;;1.33;1.10;;;26.00;40.00;;;;;;5024473;28;20075;-80
2022/06/01 12:42:57;;;;;;;4.57;1.20;;;25.70;40.30;;;;;;5028817;28;20018;-80
2022/06/01 12:45:28;;;;;;;1.95;1.25;;;25.80;40.20;;;;;;5024662;28;20422;-81
2022/06/01 12:48:16;;;;;;;2.80;0.95;;;25.80;40.30;;;;;;5007558;28;20044;-79
2022/06/01 12:50:50;;;;;;;1.00;1.00;;;25.70;40.90;;;;;;5027504;28;20038;-80
2022/06/01 12:53:39;;;;;;;2.75;1.30;;;25.80;41.20;;;;;;5025394;28;20095;-80
2022/06/01 12:56:16;;;;;;;1.45;1.27;;;25.80;41.00;;;;;;5031561;28;20052;-80
2022/06/01 12:58:43;;;;;;;1.23;1.13;;;25.70;41.40;;;;;;5042405;28;20074;-81
2022/06/01 13:01:10;;;;;;;4.45;1.10;;;25.70;41.70;;;;;;5023020;28;20458;-80
2022/06/01 13:03:51;;;;;;;2.97;1.20;;;25.70;41.50;;;;;;5041091;28;20087;-81
2022/06/01 13:06:22;;;;;;;2.65;1.45;;;25.60;41.60;;;;;;5023748;28;20099;-81
2022/06/01 13:09:05;;;;;;;1.73;1.63;;;25.60;41.40;;;;;;5041532;28;20442;-80
2022/06/01 13:11:32;;;;;;;3.05;1.50;;;25.70;41.40;;;;;;5041930;28;20025;-81
2022/06/01 13:14:00;;;;;;;1.20;1.10;;;25.90;41.40;;;;;;5038540;28;20116;-80
2022/06/01 13:16:34;;;;;;;4.20;1.27;;;26.00;41.50;;;;;;5040050;28;20097;-81
2022/06/01 13:19:26;;;;;;;1.42;1.08;;;26.10;41.30;;;;;;5040250;28;20021;-81
2022/06/01 13:22:03;;;;;;;1.38;1.25;;;26.40;40.80;;;;;;5040048;28;20029;-80
2022/06/01 13:24:33;;;;;;;4.13;1.67;;;26.60;41.00;;;;;;5022602;28;20032;-80
2022/06/01 13:26:59;;;;;;;5.03;1.40;;;26.60;40.50;;;;;;5022719;28;20398;-81
2022/06/01 13:29:38;;;;;;;4.35;1.40;;;26.70;41.00;;;;;;5039357;28;20034;-80
2022/06/01 13:32:10;;;;;;;1.50;1.30;;;26.70;40.50;;;;;;5033121;28;20029;-80
2022/06/01 13:34:41;;;;;;;3.00;1.83;;;26.60;40.70;;;;;;5039920;28;20116;-80
2022/06/01 13:37:22;;;;;;;1.30;1.20;;;26.50;41.10;;;;;;5040727;28;20022;-80
2022/06/01 13:39:53;;;;;;;1.53;1.13;;;26.70;40.30;;;;;;5021896;28;20039;-80
2022/06/01 13:42:32;;;;;;;2.92;1.52;;;26.50;40.40;;;;;;5040392;28;20025;-80
2022/06/01 13:45:04;;;;;;;3.47;1.40;;;26.30;41.00;;;;;;5040325;28;20033;-80
2022/06/01 13:47:50;;;;;;;3.50;1.38;;;26.00;41.50;;;;;;5039161;28;20049;-80
2022/06/01 13:50:16;;;;;;;2.35;1.27;;;25.60;41.70;;;;;;5022472;28;20039;-81